sensor_id;sensor_type;location;lat;lon;timestamp;P1;durP1;ratioP1;P2;durP2;ratioP2
38089;SDS011;23904;52.322;10.232;2023-09-19T00:00:37;4.72;;;0.90;;
38089;SDS011;23904;52.322;10.232;2023-09-19T00:03:06;6.90;;;1.27;;
38089;SDS011;23904;52.322;10.232;2023-09-19T00:05:35;2.50;;;0.95;;
38089;SDS011;23904;52.322;10.232;2023-09-19T00:08:08;3.88;;;0.80;;
38089;SDS011;23904;52.322;10.232;2023-09-19T00:10:33;2.55;;;1.00;;
38089;SDS011;23904;52.322;10.232;2023-09-19T00:13:03;6.43;;;1.27;;
38089;SDS011;23904;52.322;10.232;2023-09-19T00:15:36;2.08;;;0.73;;
38089;SDS011;23904;52.322;10.232;2023-09-19T00:18:07;2.95;;;1.10;;
38089;SDS011;23904;52.322;10.232;2023-09-19T00:20:37;3.83;;;1.10;;
38089;SDS011;23904;52.322;10.232;2023-09-19T00:23:03;2.10;;;0.90;;
38089;SDS011;23904;52.322;10.232;2023-09-19T00:25:34;1.70;;;0.77;;
38089;SDS011;23904;52.322;10.232;2023-09-19T00:28:03;1.88;;;1.20;;
38089;SDS011;23904;52.322;10.232;2023-09-19T00:30:32;4.55;;;1.20;;
38089;SDS011;23904;52.322;10.232;2023-09-19T00:32:59;1.50;;;0.98;;
38089;SDS011;23904;52.322;10.232;2023-09-19T00:35:25;4.03;;;1.10;;
38089;SDS011;23904;52.322;10.232;2023-09-19T00:37:52;2.13;;;1.02;;
38089;SDS011;23904;52.322;10.232;2023-09-19T00:40:19;2.92;;;1.38;;
38089;SDS011;23904;52.322;10.232;2023-09-19T00:42:46;4.38;;;1.45;;
38089;SDS011;23904;52.322;10.232;2023-09-19T00:45:15;3.88;;;1.38;;
38089;SDS011;23904;52.322;10.232;2023-09-19T00:47:50;2.25;;;1.70;;
38089;SDS011;23904;52.322;10.232;2023-09-19T00:50:17;3.70;;;1.42;;
38089;SDS011;23904;52.322;10.232;2023-09-19T00:52:44;3.42;;;1.67;;
38089;SDS011;23904;52.322;10.232;2023-09-19T00:55:14;7.35;;;1.95;;
38089;SDS011;23904;52.322;10.232;2023-09-19T00:57:41;4.40;;;1.15;;
38089;SDS011;23904;52.322;10.232;2023-09-19T01:00:08;4.68;;;1.40;;
38089;SDS011;23904;52.322;10.232;2023-09-19T01:02:41;5.70;;;1.70;;
38089;SDS011;23904;52.322;10.232;2023-09-19T01:05:08;3.97;;;1.80;;
38089;SDS011;23904;52.322;10.232;2023-09-19T01:07:35;6.07;;;2.30;;
38089;SDS011;23904;52.322;10.232;2023-09-19T01:10:05;4.20;;;1.80;;
38089;SDS011;23904;52.322;10.232;2023-09-19T01:12:45;5.07;;;2.15;;
38089;SDS011;23904;52.322;10.232;2023-09-19T01:28:06;3.70;;;2.22;;
38089;SDS011;23904;52.322;10.232;2023-09-19T01:30:46;6.93;;;2.78;;
38089;SDS011;23904;52.322;10.232;2023-09-19T01:33:19;6.27;;;3.37;;
38089;SDS011;23904;52.322;10.232;2023-09-19T01:35:45;5.68;;;2.38;;
38089;SDS011;23904;52.322;10.232;2023-09-19T01:38:10;7.70;;;3.15;;
38089;SDS011;23904;52.322;10.232;2023-09-19T01:40:41;4.97;;;2.92;;
38089;SDS011;23904;52.322;10.232;2023-09-19T01:43:10;5.37;;;2.83;;
38089;SDS011;23904;52.322;10.232;2023-09-19T01:48:43;5.55;;;3.95;;
38089;SDS011;23904;52.322;10.232;2023-09-19T01:51:24;9.32;;;4.47;;
38089;SDS011;23904;52.322;10.232;2023-09-19T01:54:03;6.47;;;4.93;;
38089;SDS011;23904;52.322;10.232;2023-09-19T01:56:36;10.75;;;5.10;;
38089;SDS011;23904;52.322;10.232;2023-09-19T01:59:13;9.52;;;5.35;;
38089;SDS011;23904;52.322;10.232;2023-09-19T02:01:46;10.27;;;5.40;;
38089;SDS011;23904;52.322;10.232;2023-09-19T02:04:14;8.43;;;5.85;;
38089;SDS011;23904;52.322;10.232;2023-09-19T02:06:40;8.45;;;5.43;;
38089;SDS011;23904;52.322;10.232;2023-09-19T02:09:07;10.13;;;6.25;;
38089;SDS011;23904;52.322;10.232;2023-09-19T02:11:34;9.75;;;5.82;;
38089;SDS011;23904;52.322;10.232;2023-09-19T02:14:00;10.48;;;5.40;;
38089;SDS011;23904;52.322;10.232;2023-09-19T02:16:26;10.57;;;5.75;;
38089;SDS011;23904;52.322;10.232;2023-09-19T02:18:51;10.02;;;6.03;;
38089;SDS011;23904;52.322;10.232;2023-09-19T02:21:17;11.48;;;6.95;;
38089;SDS011;23904;52.322;10.232;2023-09-19T02:23:43;6.72;;;6.03;;
38089;SDS011;23904;52.322;10.232;2023-09-19T02:26:12;9.43;;;5.93;;
38089;SDS011;23904;52.322;10.232;2023-09-19T02:28:38;7.72;;;5.88;;
38089;SDS011;23904;52.322;10.232;2023-09-19T02:31:04;13.02;;;6.13;;
38089;SDS011;23904;52.322;10.232;2023-09-19T02:33:32;10.38;;;6.03;;
38089;SDS011;23904;52.322;10.232;2023-09-19T02:35:58;10.55;;;5.75;;
38089;SDS011;23904;52.322;10.232;2023-09-19T02:38:25;10.18;;;5.68;;
38089;SDS011;23904;52.322;10.232;2023-09-19T02:40:51;9.48;;;6.22;;
38089;SDS011;23904;52.322;10.232;2023-09-19T02:43:18;10.25;;;5.93;;
38089;SDS011;23904;52.322;10.232;2023-09-19T02:45:46;10.27;;;6.10;;
38089;SDS011;23904;52.322;10.232;2023-09-19T02:48:14;11.43;;;5.32;;
38089;SDS011;23904;52.322;10.232;2023-09-19T02:50:43;9.63;;;5.00;;
38089;SDS011;23904;52.322;10.232;2023-09-19T02:53:09;11.48;;;5.60;;
38089;SDS011;23904;52.322;10.232;2023-09-19T02:55:37;11.93;;;5.63;;
38089;SDS011;23904;52.322;10.232;2023-09-19T02:58:05;14.10;;;6.45;;
38089;SDS011;23904;52.322;10.232;2023-09-19T03:00:36;13.90;;;5.32;;
38089;SDS011;23904;52.322;10.232;2023-09-19T03:03:02;13.65;;;5.97;;
38089;SDS011;23904;52.322;10.232;2023-09-19T03:05:29;9.88;;;5.15;;
38089;SDS011;23904;52.322;10.232;2023-09-19T03:07:56;8.40;;;5.47;;
38089;SDS011;23904;52.322;10.232;2023-09-19T03:10:22;12.18;;;6.00;;
38089;SDS011;23904;52.322;10.232;2023-09-19T03:12:49;12.13;;;5.75;;
38089;SDS011;23904;52.322;10.232;2023-09-19T03:15:15;12.63;;;5.85;;
38089;SDS011;23904;52.322;10.232;2023-09-19T03:17:46;11.23;;;5.90;;
38089;SDS011;23904;52.322;10.232;2023-09-19T03:20:13;15.45;;;5.80;;
38089;SDS011;23904;52.322;10.232;2023-09-19T03:22:42;15.43;;;6.40;;
38089;SDS011;23904;52.322;10.232;2023-09-19T03:25:08;11.27;;;6.50;;
38089;SDS011;23904;52.322;10.232;2023-09-19T03:27:36;11.25;;;6.78;;
38089;SDS011;23904;52.322;10.232;2023-09-19T03:30:06;9.60;;;6.13;;
38089;SDS011;23904;52.322;10.232;2023-09-19T03:32:44;19.35;;;6.15;;
38089;SDS011;23904;52.322;10.232;2023-09-19T03:35:15;9.52;;;6.18;;
38089;SDS011;23904;52.322;10.232;2023-09-19T03:37:41;14.05;;;6.32;;
38089;SDS011;23904;52.322;10.232;2023-09-19T03:40:11;12.52;;;6.57;;
38089;SDS011;23904;52.322;10.232;2023-09-19T03:42:40;13.50;;;7.40;;
38089;SDS011;23904;52.322;10.232;2023-09-19T03:45:09;11.27;;;6.22;;
38089;SDS011;23904;52.322;10.232;2023-09-19T03:47:40;11.80;;;7.03;;
38089;SDS011;23904;52.322;10.232;2023-09-19T03:50:06;13.55;;;7.68;;
38089;SDS011;23904;52.322;10.232;2023-09-19T03:52:36;13.43;;;7.57;;
38089;SDS011;23904;52.322;10.232;2023-09-19T03:55:01;12.73;;;6.80;;
38089;SDS011;23904;52.322;10.232;2023-09-19T03:57:29;13.45;;;6.85;;
38089;SDS011;23904;52.322;10.232;2023-09-19T03:59:55;13.32;;;6.72;;
38089;SDS011;23904;52.322;10.232;2023-09-19T04:02:21;11.70;;;6.65;;
38089;SDS011;23904;52.322;10.232;2023-09-19T04:04:50;8.32;;;6.05;;
38089;SDS011;23904;52.322;10.232;2023-09-19T04:07:17;10.40;;;6.93;;
38089;SDS011;23904;52.322;10.232;2023-09-19T04:09:44;12.23;;;6.25;;
38089;SDS011;23904;52.322;10.232;2023-09-19T04:12:10;12.13;;;6.18;;
38089;SDS011;23904;52.322;10.232;2023-09-19T04:14:36;11.18;;;5.65;;
38089;SDS011;23904;52.322;10.232;2023-09-19T04:17:03;9.30;;;5.60;;
38089;SDS011;23904;52.322;10.232;2023-09-19T04:19:30;11.77;;;5.55;;
38089;SDS011;23904;52.322;10.232;2023-09-19T04:21:56;10.70;;;5.60;;
38089;SDS011;23904;52.322;10.232;2023-09-19T04:24:21;13.57;;;5.97;;
38089;SDS011;23904;52.322;10.232;2023-09-19T04:26:47;10.65;;;6.47;;
38089;SDS011;23904;52.322;10.232;2023-09-19T04:29:13;16.00;;;6.88;;
38089;SDS011;23904;52.322;10.232;2023-09-19T04:31:38;12.05;;;6.05;;
38089;SDS011;23904;52.322;10.232;2023-09-19T04:34:05;12.27;;;7.03;;
38089;SDS011;23904;52.322;10.232;2023-09-19T04:36:31;11.32;;;6.60;;
38089;SDS011;23904;52.322;10.232;2023-09-19T04:38:57;12.43;;;6.60;;
38089;SDS011;23904;52.322;10.232;2023-09-19T04:41:22;10.10;;;6.45;;
38089;SDS011;23904;52.322;10.232;2023-09-19T04:43:48;12.85;;;6.78;;
38089;SDS011;23904;52.322;10.232;2023-09-19T04:46:15;15.48;;;7.10;;
38089;SDS011;23904;52.322;10.232;2023-09-19T04:48:42;16.77;;;7.60;;
38089;SDS011;23904;52.322;10.232;2023-09-19T04:51:08;12.85;;;7.00;;
38089;SDS011;23904;52.322;10.232;2023-09-19T04:53:35;19.15;;;8.15;;
38089;SDS011;23904;52.322;10.232;2023-09-19T04:56:01;11.20;;;7.13;;
38089;SDS011;23904;52.322;10.232;2023-09-19T04:58:28;12.88;;;7.05;;
38089;SDS011;23904;52.322;10.232;2023-09-19T05:00:54;16.00;;;8.63;;
38089;SDS011;23904;52.322;10.232;2023-09-19T05:03:21;15.57;;;7.07;;
38089;SDS011;23904;52.322;10.232;2023-09-19T05:05:47;11.98;;;6.95;;
38089;SDS011;23904;52.322;10.232;2023-09-19T05:08:13;14.05;;;7.88;;
38089;SDS011;23904;52.322;10.232;2023-09-19T05:10:39;14.63;;;6.95;;
38089;SDS011;23904;52.322;10.232;2023-09-19T05:13:05;11.48;;;7.43;;
38089;SDS011;23904;52.322;10.232;2023-09-19T05:15:32;15.13;;;7.10;;
38089;SDS011;23904;52.322;10.232;2023-09-19T05:17:58;15.40;;;6.68;;
38089;SDS011;23904;52.322;10.232;2023-09-19T05:20:24;17.10;;;7.65;;
38089;SDS011;23904;52.322;10.232;2023-09-19T05:22:57;18.38;;;7.65;;
38089;SDS011;23904;52.322;10.232;2023-09-19T05:25:31;17.33;;;8.25;;
38089;SDS011;23904;52.322;10.232;2023-09-19T05:27:57;15.15;;;7.97;;
38089;SDS011;23904;52.322;10.232;2023-09-19T05:30:25;13.45;;;6.78;;
38089;SDS011;23904;52.322;10.232;2023-09-19T05:32:54;11.60;;;6.63;;
38089;SDS011;23904;52.322;10.232;2023-09-19T05:35:20;12.55;;;5.65;;
38089;SDS011;23904;52.322;10.232;2023-09-19T05:37:47;12.40;;;6.93;;
38089;SDS011;23904;52.322;10.232;2023-09-19T05:40:16;14.40;;;7.03;;
38089;SDS011;23904;52.322;10.232;2023-09-19T05:42:42;14.15;;;6.72;;
38089;SDS011;23904;52.322;10.232;2023-09-19T05:45:09;11.13;;;6.38;;
38089;SDS011;23904;52.322;10.232;2023-09-19T05:47:39;16.08;;;5.55;;
38089;SDS011;23904;52.322;10.232;2023-09-19T05:50:10;16.35;;;7.55;;
38089;SDS011;23904;52.322;10.232;2023-09-19T05:52:37;16.70;;;6.40;;
38089;SDS011;23904;52.322;10.232;2023-09-19T05:55:06;14.52;;;6.75;;
38089;SDS011;23904;52.322;10.232;2023-09-19T05:57:36;14.30;;;5.80;;
38089;SDS011;23904;52.322;10.232;2023-09-19T06:00:07;14.15;;;6.20;;
38089;SDS011;23904;52.322;10.232;2023-09-19T06:02:36;13.82;;;5.85;;
38089;SDS011;23904;52.322;10.232;2023-09-19T06:05:03;14.35;;;6.50;;
38089;SDS011;23904;52.322;10.232;2023-09-19T06:07:31;11.63;;;6.20;;
38089;SDS011;23904;52.322;10.232;2023-09-19T06:10:05;14.63;;;6.07;;
38089;SDS011;23904;52.322;10.232;2023-09-19T06:12:32;13.55;;;5.72;;
38089;SDS011;23904;52.322;10.232;2023-09-19T06:15:00;12.57;;;6.82;;
38089;SDS011;23904;52.322;10.232;2023-09-19T06:17:25;19.83;;;6.63;;
38089;SDS011;23904;52.322;10.232;2023-09-19T06:19:52;15.30;;;6.47;;
38089;SDS011;23904;52.322;10.232;2023-09-19T06:22:18;14.90;;;6.07;;
38089;SDS011;23904;52.322;10.232;2023-09-19T06:24:44;17.60;;;6.65;;
38089;SDS011;23904;52.322;10.232;2023-09-19T06:27:11;9.02;;;4.97;;
38089;SDS011;23904;52.322;10.232;2023-09-19T06:29:38;18.45;;;6.05;;
38089;SDS011;23904;52.322;10.232;2023-09-19T06:32:10;18.95;;;5.88;;
38089;SDS011;23904;52.322;10.232;2023-09-19T06:34:36;19.90;;;5.88;;
38089;SDS011;23904;52.322;10.232;2023-09-19T06:37:03;18.90;;;5.90;;
38089;SDS011;23904;52.322;10.232;2023-09-19T06:39:31;23.63;;;6.05;;
38089;SDS011;23904;52.322;10.232;2023-09-19T06:41:56;13.32;;;5.32;;
38089;SDS011;23904;52.322;10.232;2023-09-19T06:44:23;13.85;;;5.53;;
38089;SDS011;23904;52.322;10.232;2023-09-19T06:46:49;18.17;;;5.45;;
38089;SDS011;23904;52.322;10.232;2023-09-19T06:49:16;19.88;;;5.50;;
38089;SDS011;23904;52.322;10.232;2023-09-19T06:51:42;17.13;;;5.60;;
38089;SDS011;23904;52.322;10.232;2023-09-19T06:54:09;14.32;;;5.45;;
38089;SDS011;23904;52.322;10.232;2023-09-19T06:56:35;19.70;;;5.35;;
38089;SDS011;23904;52.322;10.232;2023-09-19T06:59:01;15.82;;;4.75;;
38089;SDS011;23904;52.322;10.232;2023-09-19T07:01:28;16.27;;;5.40;;
38089;SDS011;23904;52.322;10.232;2023-09-19T07:03:54;20.30;;;4.80;;
38089;SDS011;23904;52.322;10.232;2023-09-19T07:06:19;13.95;;;5.00;;
38089;SDS011;23904;52.322;10.232;2023-09-19T07:08:45;15.57;;;5.10;;
38089;SDS011;23904;52.322;10.232;2023-09-19T07:11:11;17.40;;;4.93;;
38089;SDS011;23904;52.322;10.232;2023-09-19T07:13:37;18.38;;;5.40;;
38089;SDS011;23904;52.322;10.232;2023-09-19T07:16:04;16.98;;;5.20;;
38089;SDS011;23904;52.322;10.232;2023-09-19T07:18:29;10.55;;;3.90;;
38089;SDS011;23904;52.322;10.232;2023-09-19T07:20:57;17.90;;;5.82;;
38089;SDS011;23904;52.322;10.232;2023-09-19T07:23:29;19.67;;;5.20;;
38089;SDS011;23904;52.322;10.232;2023-09-19T07:25:59;21.25;;;4.78;;
38089;SDS011;23904;52.322;10.232;2023-09-19T07:28:30;18.25;;;5.68;;
38089;SDS011;23904;52.322;10.232;2023-09-19T07:30:56;16.02;;;4.40;;
38089;SDS011;23904;52.322;10.232;2023-09-19T07:33:22;15.07;;;4.38;;
38089;SDS011;23904;52.322;10.232;2023-09-19T07:35:49;14.93;;;4.80;;
38089;SDS011;23904;52.322;10.232;2023-09-19T07:38:15;13.68;;;3.75;;
38089;SDS011;23904;52.322;10.232;2023-09-19T07:40:42;20.65;;;4.25;;
38089;SDS011;23904;52.322;10.232;2023-09-19T07:43:08;14.20;;;3.72;;
38089;SDS011;23904;52.322;10.232;2023-09-19T07:45:34;14.35;;;3.45;;
38089;SDS011;23904;52.322;10.232;2023-09-19T07:48:01;11.32;;;3.60;;
38089;SDS011;23904;52.322;10.232;2023-09-19T07:50:29;9.98;;;2.80;;
38089;SDS011;23904;52.322;10.232;2023-09-19T07:52:55;11.45;;;2.88;;
38089;SDS011;23904;52.322;10.232;2023-09-19T07:55:21;13.68;;;2.90;;
38089;SDS011;23904;52.322;10.232;2023-09-19T07:57:51;14.15;;;3.47;;
38089;SDS011;23904;52.322;10.232;2023-09-19T08:00:17;13.80;;;3.33;;
38089;SDS011;23904;52.322;10.232;2023-09-19T08:02:43;14.23;;;3.20;;
38089;SDS011;23904;52.322;10.232;2023-09-19T08:05:09;10.45;;;2.67;;
38089;SDS011;23904;52.322;10.232;2023-09-19T08:07:37;11.38;;;2.85;;
38089;SDS011;23904;52.322;10.232;2023-09-19T08:10:06;15.27;;;3.50;;
38089;SDS011;23904;52.322;10.232;2023-09-19T08:12:33;15.02;;;2.65;;
38089;SDS011;23904;52.322;10.232;2023-09-19T08:15:02;13.60;;;2.70;;
38089;SDS011;23904;52.322;10.232;2023-09-19T08:17:33;11.52;;;2.85;;
38089;SDS011;23904;52.322;10.232;2023-09-19T08:20:00;14.70;;;2.90;;
38089;SDS011;23904;52.322;10.232;2023-09-19T08:22:30;13.98;;;2.55;;
38089;SDS011;23904;52.322;10.232;2023-09-19T08:24:56;12.90;;;2.95;;
38089;SDS011;23904;52.322;10.232;2023-09-19T08:27:23;14.27;;;3.25;;
38089;SDS011;23904;52.322;10.232;2023-09-19T08:29:51;9.32;;;2.20;;
38089;SDS011;23904;52.322;10.232;2023-09-19T08:32:18;12.52;;;2.70;;
38089;SDS011;23904;52.322;10.232;2023-09-19T08:34:48;13.20;;;2.55;;
38089;SDS011;23904;52.322;10.232;2023-09-19T08:37:14;12.00;;;3.25;;
38089;SDS011;23904;52.322;10.232;2023-09-19T08:39:42;11.23;;;2.88;;
38089;SDS011;23904;52.322;10.232;2023-09-19T08:42:08;10.70;;;2.90;;
38089;SDS011;23904;52.322;10.232;2023-09-19T08:44:36;11.80;;;2.80;;
38089;SDS011;23904;52.322;10.232;2023-09-19T08:47:09;8.77;;;2.20;;
38089;SDS011;23904;52.322;10.232;2023-09-19T08:49:41;7.93;;;2.70;;
38089;SDS011;23904;52.322;10.232;2023-09-19T08:52:32;11.30;;;3.17;;
38089;SDS011;23904;52.322;10.232;2023-09-19T08:55:06;9.30;;;2.55;;
38089;SDS011;23904;52.322;10.232;2023-09-19T08:57:37;15.13;;;3.67;;
38089;SDS011;23904;52.322;10.232;2023-09-19T09:00:06;9.30;;;2.53;;
38089;SDS011;23904;52.322;10.232;2023-09-19T09:02:35;12.60;;;2.78;;
38089;SDS011;23904;52.322;10.232;2023-09-19T09:05:08;13.45;;;2.63;;
38089;SDS011;23904;52.322;10.232;2023-09-19T09:07:35;7.00;;;2.33;;
38089;SDS011;23904;52.322;10.232;2023-09-19T09:10:03;9.05;;;2.15;;
38089;SDS011;23904;52.322;10.232;2023-09-19T09:12:29;5.63;;;2.38;;
38089;SDS011;23904;52.322;10.232;2023-09-19T09:14:55;11.05;;;2.45;;
38089;SDS011;23904;52.322;10.232;2023-09-19T09:17:22;9.48;;;2.67;;
38089;SDS011;23904;52.322;10.232;2023-09-19T09:19:49;7.90;;;2.10;;
38089;SDS011;23904;52.322;10.232;2023-09-19T09:22:18;9.77;;;2.88;;
38089;SDS011;23904;52.322;10.232;2023-09-19T09:24:55;8.05;;;2.28;;
38089;SDS011;23904;52.322;10.232;2023-09-19T09:27:23;7.65;;;2.50;;
38089;SDS011;23904;52.322;10.232;2023-09-19T09:29:50;12.02;;;3.55;;
38089;SDS011;23904;52.322;10.232;2023-09-19T09:34:55;7.55;;;2.28;;
38089;SDS011;23904;52.322;10.232;2023-09-19T09:37:22;11.70;;;3.20;;
38089;SDS011;23904;52.322;10.232;2023-09-19T09:40:02;19.63;;;3.42;;
38089;SDS011;23904;52.322;10.232;2023-09-19T09:42:40;10.45;;;2.47;;
38089;SDS011;23904;52.322;10.232;2023-09-19T09:45:16;8.80;;;2.35;;
38089;SDS011;23904;52.322;10.232;2023-09-19T09:47:53;7.15;;;2.22;;
38089;SDS011;23904;52.322;10.232;2023-09-19T09:50:32;9.93;;;2.53;;
38089;SDS011;23904;52.322;10.232;2023-09-19T09:53:23;9.13;;;2.30;;
38089;SDS011;23904;52.322;10.232;2023-09-19T09:58:31;5.85;;;1.70;;
38089;SDS011;23904;52.322;10.232;2023-09-19T10:01:21;8.57;;;2.70;;
38089;SDS011;23904;52.322;10.232;2023-09-19T10:03:51;7.95;;;2.13;;
38089;SDS011;23904;52.322;10.232;2023-09-19T10:06:23;7.88;;;2.00;;
38089;SDS011;23904;52.322;10.232;2023-09-19T10:08:58;6.72;;;1.90;;
38089;SDS011;23904;52.322;10.232;2023-09-19T10:11:30;8.95;;;2.63;;
38089;SDS011;23904;52.322;10.232;2023-09-19T10:13:57;9.82;;;2.60;;
38089;SDS011;23904;52.322;10.232;2023-09-19T10:16:26;9.68;;;2.38;;
38089;SDS011;23904;52.322;10.232;2023-09-19T10:18:56;11.13;;;2.53;;
38089;SDS011;23904;52.322;10.232;2023-09-19T10:21:27;8.82;;;2.25;;
38089;SDS011;23904;52.322;10.232;2023-09-19T10:23:55;9.90;;;2.50;;
38089;SDS011;23904;52.322;10.232;2023-09-19T10:26:24;8.90;;;2.70;;
38089;SDS011;23904;52.322;10.232;2023-09-19T10:28:55;11.20;;;2.80;;
38089;SDS011;23904;52.322;10.232;2023-09-19T10:31:24;11.15;;;2.28;;
38089;SDS011;23904;52.322;10.232;2023-09-19T10:33:53;10.55;;;2.55;;
38089;SDS011;23904;52.322;10.232;2023-09-19T10:36:20;10.88;;;2.50;;
38089;SDS011;23904;52.322;10.232;2023-09-19T10:38:52;6.57;;;2.40;;
38089;SDS011;23904;52.322;10.232;2023-09-19T10:41:21;10.52;;;2.40;;
38089;SDS011;23904;52.322;10.232;2023-09-19T10:43:48;10.57;;;2.45;;
38089;SDS011;23904;52.322;10.232;2023-09-19T10:46:13;6.90;;;2.17;;
38089;SDS011;23904;52.322;10.232;2023-09-19T10:48:40;7.88;;;2.40;;
38089;SDS011;23904;52.322;10.232;2023-09-19T10:51:09;12.60;;;4.05;;
38089;SDS011;23904;52.322;10.232;2023-09-19T10:53:54;13.57;;;3.00;;
38089;SDS011;23904;52.322;10.232;2023-09-19T10:56:46;8.55;;;2.55;;
38089;SDS011;23904;52.322;10.232;2023-09-19T10:59:16;7.47;;;2.53;;
38089;SDS011;23904;52.322;10.232;2023-09-19T11:01:53;15.93;;;3.35;;
38089;SDS011;23904;52.322;10.232;2023-09-19T11:07:07;10.65;;;3.05;;
38089;SDS011;23904;52.322;10.232;2023-09-19T11:14:56;14.38;;;3.85;;
38089;SDS011;23904;52.322;10.232;2023-09-19T11:17:35;10.88;;;2.65;;
38089;SDS011;23904;52.322;10.232;2023-09-19T11:30:31;10.90;;;2.80;;
38089;SDS011;23904;52.322;10.232;2023-09-19T11:36:07;6.47;;;2.45;;
38089;SDS011;23904;52.322;10.232;2023-09-19T11:47:08;9.55;;;2.67;;
38089;SDS011;23904;52.322;10.232;2023-09-19T11:49:18;10.30;;;2.88;;
38089;SDS011;23904;52.322;10.232;2023-09-19T11:51:50;10.85;;;2.90;;
38089;SDS011;23904;52.322;10.232;2023-09-19T11:54:16;7.97;;;2.42;;
38089;SDS011;23904;52.322;10.232;2023-09-19T11:56:50;8.23;;;2.70;;
38089;SDS011;23904;52.322;10.232;2023-09-19T12:01:51;9.68;;;3.00;;
38089;SDS011;23904;52.322;10.232;2023-09-19T12:04:40;11.52;;;2.95;;
38089;SDS011;23904;52.322;10.232;2023-09-19T12:09:50;8.43;;;2.83;;
38089;SDS011;23904;52.322;10.232;2023-09-19T12:12:29;9.13;;;2.97;;
38089;SDS011;23904;52.322;10.232;2023-09-19T12:14:56;9.98;;;2.88;;
38089;SDS011;23904;52.322;10.232;2023-09-19T12:17:24;10.90;;;3.42;;
38089;SDS011;23904;52.322;10.232;2023-09-19T12:20:08;11.60;;;2.90;;
38089;SDS011;23904;52.322;10.232;2023-09-19T12:22:45;10.85;;;3.10;;
38089;SDS011;23904;52.322;10.232;2023-09-19T12:25:12;9.80;;;3.17;;
38089;SDS011;23904;52.322;10.232;2023-09-19T12:27:47;8.98;;;2.70;;
38089;SDS011;23904;52.322;10.232;2023-09-19T12:30:18;11.68;;;3.38;;
38089;SDS011;23904;52.322;10.232;2023-09-19T12:32:46;11.05;;;3.30;;
38089;SDS011;23904;52.322;10.232;2023-09-19T12:35:29;7.43;;;3.22;;
38089;SDS011;23904;52.322;10.232;2023-09-19T12:37:59;9.57;;;2.92;;
38089;SDS011;23904;52.322;10.232;2023-09-19T12:40:25;7.82;;;2.60;;
38089;SDS011;23904;52.322;10.232;2023-09-19T12:42:53;11.57;;;2.85;;
38089;SDS011;23904;52.322;10.232;2023-09-19T12:45:27;11.02;;;3.42;;
38089;SDS011;23904;52.322;10.232;2023-09-19T12:53:34;10.52;;;3.22;;
38089;SDS011;23904;52.322;10.232;2023-09-19T12:56:09;8.60;;;2.80;;
38089;SDS011;23904;52.322;10.232;2023-09-19T12:58:56;13.07;;;3.70;;
38089;SDS011;23904;52.322;10.232;2023-09-19T13:01:27;9.02;;;2.88;;
38089;SDS011;23904;52.322;10.232;2023-09-19T13:04:12;6.82;;;2.55;;
38089;SDS011;23904;52.322;10.232;2023-09-19T13:06:47;7.90;;;2.25;;
38089;SDS011;23904;52.322;10.232;2023-09-19T13:09:17;8.40;;;3.50;;
38089;SDS011;23904;52.322;10.232;2023-09-19T13:11:45;11.27;;;3.25;;
38089;SDS011;23904;52.322;10.232;2023-09-19T13:14:16;8.88;;;3.08;;
38089;SDS011;23904;52.322;10.232;2023-09-19T13:16:55;11.18;;;3.17;;
38089;SDS011;23904;52.322;10.232;2023-09-19T13:19:36;9.88;;;2.92;;
38089;SDS011;23904;52.322;10.232;2023-09-19T13:25:14;8.13;;;3.17;;
38089;SDS011;23904;52.322;10.232;2023-09-19T13:27:45;13.07;;;3.58;;
38089;SDS011;23904;52.322;10.232;2023-09-19T13:30:21;9.38;;;2.75;;
38089;SDS011;23904;52.322;10.232;2023-09-19T13:32:50;11.02;;;3.10;;
38089;SDS011;23904;52.322;10.232;2023-09-19T13:35:17;8.98;;;3.03;;
38089;SDS011;23904;52.322;10.232;2023-09-19T13:37:44;21.10;;;3.35;;
38089;SDS011;23904;52.322;10.232;2023-09-19T13:40:14;9.25;;;3.00;;
38089;SDS011;23904;52.322;10.232;2023-09-19T13:42:40;8.55;;;2.88;;
38089;SDS011;23904;52.322;10.232;2023-09-19T13:45:07;13.82;;;2.75;;
38089;SDS011;23904;52.322;10.232;2023-09-19T13:47:38;9.70;;;3.83;;
38089;SDS011;23904;52.322;10.232;2023-09-19T13:50:04;10.35;;;2.67;;
38089;SDS011;23904;52.322;10.232;2023-09-19T13:52:31;11.38;;;3.05;;
38089;SDS011;23904;52.322;10.232;2023-09-19T13:54:57;9.05;;;3.10;;
38089;SDS011;23904;52.322;10.232;2023-09-19T13:57:24;13.40;;;3.60;;
38089;SDS011;23904;52.322;10.232;2023-09-19T13:59:51;8.15;;;3.00;;
38089;SDS011;23904;52.322;10.232;2023-09-19T14:02:19;8.23;;;2.50;;
38089;SDS011;23904;52.322;10.232;2023-09-19T14:04:47;10.13;;;3.05;;
38089;SDS011;23904;52.322;10.232;2023-09-19T14:07:14;11.35;;;3.30;;
38089;SDS011;23904;52.322;10.232;2023-09-19T14:09:43;8.13;;;2.70;;
38089;SDS011;23904;52.322;10.232;2023-09-19T14:12:10;7.65;;;2.90;;
38089;SDS011;23904;52.322;10.232;2023-09-19T14:14:36;11.95;;;3.22;;
38089;SDS011;23904;52.322;10.232;2023-09-19T14:17:02;7.75;;;3.10;;
38089;SDS011;23904;52.322;10.232;2023-09-19T14:19:29;8.88;;;3.55;;
38089;SDS011;23904;52.322;10.232;2023-09-19T14:21:55;10.52;;;3.30;;
38089;SDS011;23904;52.322;10.232;2023-09-19T14:24:21;11.07;;;3.55;;
38089;SDS011;23904;52.322;10.232;2023-09-19T14:26:47;8.82;;;3.13;;
38089;SDS011;23904;52.322;10.232;2023-09-19T14:29:14;10.52;;;3.80;;
38089;SDS011;23904;52.322;10.232;2023-09-19T14:31:40;11.98;;;4.22;;
38089;SDS011;23904;52.322;10.232;2023-09-19T14:34:07;10.48;;;4.63;;
38089;SDS011;23904;52.322;10.232;2023-09-19T14:36:36;10.02;;;3.20;;
38089;SDS011;23904;52.322;10.232;2023-09-19T14:39:03;14.85;;;3.45;;
38089;SDS011;23904;52.322;10.232;2023-09-19T14:41:29;10.13;;;3.20;;
38089;SDS011;23904;52.322;10.232;2023-09-19T14:43:56;9.20;;;3.13;;
38089;SDS011;23904;52.322;10.232;2023-09-19T14:46:21;16.48;;;3.42;;
38089;SDS011;23904;52.322;10.232;2023-09-19T14:48:49;6.30;;;2.92;;
38089;SDS011;23904;52.322;10.232;2023-09-19T14:51:18;9.57;;;2.85;;
38089;SDS011;23904;52.322;10.232;2023-09-19T14:53:44;8.68;;;2.95;;
38089;SDS011;23904;52.322;10.232;2023-09-19T14:56:14;7.30;;;2.75;;
38089;SDS011;23904;52.322;10.232;2023-09-19T14:58:43;10.13;;;2.85;;
38089;SDS011;23904;52.322;10.232;2023-09-19T15:01:09;10.48;;;2.90;;
38089;SDS011;23904;52.322;10.232;2023-09-19T15:03:38;8.88;;;2.85;;
38089;SDS011;23904;52.322;10.232;2023-09-19T15:06:06;10.13;;;2.97;;
38089;SDS011;23904;52.322;10.232;2023-09-19T15:08:42;9.38;;;3.08;;
38089;SDS011;23904;52.322;10.232;2023-09-19T15:11:12;9.27;;;3.50;;
38089;SDS011;23904;52.322;10.232;2023-09-19T15:13:45;6.00;;;3.05;;
38089;SDS011;23904;52.322;10.232;2023-09-19T15:16:12;10.68;;;2.85;;
38089;SDS011;23904;52.322;10.232;2023-09-19T15:18:39;13.48;;;2.53;;
38089;SDS011;23904;52.322;10.232;2023-09-19T15:21:08;9.18;;;2.92;;
38089;SDS011;23904;52.322;10.232;2023-09-19T15:23:37;8.32;;;2.85;;
38089;SDS011;23904;52.322;10.232;2023-09-19T15:26:05;6.80;;;2.40;;
38089;SDS011;23904;52.322;10.232;2023-09-19T15:28:33;6.85;;;2.83;;
38089;SDS011;23904;52.322;10.232;2023-09-19T15:31:00;7.90;;;3.22;;
38089;SDS011;23904;52.322;10.232;2023-09-19T15:33:34;9.95;;;3.10;;
38089;SDS011;23904;52.322;10.232;2023-09-19T15:36:03;9.32;;;2.50;;
38089;SDS011;23904;52.322;10.232;2023-09-19T15:41:34;13.88;;;3.88;;
38089;SDS011;23904;52.322;10.232;2023-09-19T15:44:07;7.68;;;2.50;;